Time;durP1;ratioP1;P1;durP2;ratioP2;P2;SDS_P1;SDS_P2;PMS_P1;PMS_P2;Temp;Humidity;BMP_temperature;BMP_pressure;BME280_temperature;BME280_humidity;BME280_pressure;Samples;Min_cycle;Max_cycle;Signal;HPM_P1;HPM_P2
2023/10/07 00:02:14;;;;;;;0.10;0.10;;;;;;;22.00;68.20;102006.41;5072437;28;20048;-71
2023/10/07 00:04:40;;;;;;;0.10;0.10;;;;;;;22.64;65.16;102003.97;5071634;28;20062;-70
2023/10/07 00:07:10;;;;;;;0.10;0.10;;;;;;;21.94;67.15;101995.72;5071641;28;20036;-71
2023/10/07 00:09:37;;;;;;;0.03;0.03;;;;;;;22.02;67.13;102004.22;5071547;28;20056;-71
2023/10/07 00:12:02;;;;;;;0.10;0.10;;;;;;;22.29;65.87;102010.25;5071641;28;20131;-71
2023/10/07 00:14:29;;;;;;;0.10;0.10;;;;;;;22.97;63.76;102008.81;5071572;28;20053;-70
2023/10/07 00:16:54;;;;;;;0.10;0.10;;;;;;;23.05;63.15;102007.41;5072248;28;20029;-71
2023/10/07 00:19:21;;;;;;;0.10;0.10;;;;;;;23.21;62.73;102006.25;5071159;28;20037;-71
2023/10/07 00:21:59;;;;;;;0.08;0.08;;;;;;;22.17;66.20;102006.16;5078139;28;20088;-72
2023/10/07 00:24:25;;;;;;;0.10;0.10;;;;;;;22.45;65.61;102005.59;5074751;28;20421;-71
2023/10/07 00:26:52;;;;;;;0.10;0.10;;;;;;;22.55;65.76;101986.38;5071167;28;20054;-71
2023/10/07 00:29:24;;;;;;;0.10;0.10;;;;;;;22.52;65.74;101987.78;5070507;28;20389;-69
2023/10/07 00:31:50;;;;;;;0.00;0.00;;;;;;;22.62;65.15;101986.97;5071628;28;20020;-72
2023/10/07 00:34:16;;;;;;;0.10;0.10;;;;;;;22.08;67.85;101983.97;5053176;28;20037;-74
2023/10/07 00:36:42;;;;;;;0.10;0.10;;;;;;;23.06;64.54;101992.56;5071318;28;20102;-72
2023/10/07 00:39:08;;;;;;;0.10;0.10;;;;;;;23.40;62.63;102004.53;5071562;28;20040;-71
2023/10/07 00:42:07;;;;;;;0.10;0.10;;;;;;;22.63;65.91;102000.38;5071330;28;20017;-73
2023/10/07 00:44:31;;;;;;;0.03;0.03;;;;;;;22.53;66.79;101994.91;5067893;28;20028;-69
2023/10/07 00:49:40;;;;;;;0.10;0.10;;;;;;;23.55;62.26;101999.78;5070876;28;20041;-71
2023/10/07 00:52:14;;;;;;;0.00;0.00;;;;;;;22.82;64.41;101994.31;5070056;28;20384;-71
2023/10/07 00:59:51;;;;;;;0.00;0.00;;;;;;;22.62;66.13;102004.22;5070696;28;20036;-71
2023/10/07 01:02:28;;;;;;;0.10;0.10;;;;;;;22.28;67.85;101994.94;5071514;28;20024;-72
2023/10/07 01:04:54;;;;;;;0.10;0.10;;;;;;;22.56;67.49;101988.03;5070840;28;20457;-71
2023/10/07 01:07:19;;;;;;;0.00;0.00;;;;;;;23.03;65.21;101995.88;5070628;28;20028;-71
2023/10/07 01:10:00;;;;;;;0.10;0.10;;;;;;;23.57;63.28;102007.72;5070831;28;20032;-72
2023/10/07 01:12:25;;;;;;;0.10;0.10;;;;;;;22.36;67.55;101994.38;5070724;28;20127;-72
2023/10/07 01:14:52;;;;;;;0.00;0.00;;;;;;;22.37;68.63;101986.97;5070527;28;20622;-71
2023/10/07 01:17:23;;;;;;;0.10;0.10;;;;;;;22.89;65.77;101992.09;5071067;28;20033;-70
2023/10/07 01:19:54;;;;;;;0.00;0.00;;;;;;;23.10;65.03;101997.22;5089856;28;20495;-70
2023/10/07 01:22:24;;;;;;;0.10;0.10;;;;;;;22.92;65.60;101995.09;5070156;28;20054;-70
2023/10/07 01:24:49;;;;;;;0.05;0.05;;;;;;;23.20;65.07;101988.13;5070067;28;20127;-71
2023/10/07 01:29:49;;;;;;;0.10;0.10;;;;;;;23.28;65.02;101980.16;5070246;28;20520;-70
2023/10/07 01:32:17;;;;;;;0.00;0.00;;;;;;;23.36;64.53;101984.25;5070145;28;20024;-72
2023/10/07 01:34:52;;;;;;;0.10;0.10;;;;;;;22.66;66.19;101977.09;5069916;28;20058;-71
2023/10/07 01:37:25;;;;;;;0.10;0.10;;;;;;;23.31;64.55;101981.53;5069739;28;20040;-71
2023/10/07 01:39:54;;;;;;;0.10;0.10;;;;;;;22.94;65.79;101978.38;5051857;28;20052;-71
2023/10/07 01:42:26;;;;;;;0.10;0.10;;;;;;;23.25;64.36;101985.38;5069986;28;20492;-72
2023/10/07 01:44:57;;;;;;;0.10;0.10;;;;;;;23.14;65.85;101979.09;5070005;28;20399;-70
2023/10/07 01:47:29;;;;;;;0.00;0.00;;;;;;;23.28;64.46;101969.16;5069766;28;20028;-71
2023/10/07 01:49:56;;;;;;;0.00;0.00;;;;;;;22.74;67.13;101981.19;5051600;28;20056;-70
2023/10/07 01:52:26;;;;;;;0.10;0.10;;;;;;;22.53;68.30;101983.94;5069628;28;20294;-71
2023/10/07 01:54:52;;;;;;;0.07;0.07;;;;;;;22.87;67.17;101980.59;5069966;28;20043;-72
2023/10/07 01:57:18;;;;;;;0.10;0.10;;;;;;;23.02;65.82;101989.56;5051486;28;20473;-71
2023/10/07 01:59:45;;;;;;;0.10;0.10;;;;;;;23.65;64.25;101981.59;5069653;28;20036;-70
2023/10/07 02:02:12;;;;;;;0.10;0.10;;;;;;;24.14;61.78;101976.84;5070118;28;20016;-70
2023/10/07 02:04:38;;;;;;;0.10;0.10;;;;;;;23.21;65.13;101985.09;5069330;28;20138;-71
2023/10/07 02:07:03;;;;;;;0.10;0.10;;;;;;;24.11;62.27;101978.28;5070026;28;20029;-70
2023/10/07 02:09:34;;;;;;;0.10;0.10;;;;;;;23.60;63.65;101981.63;5069607;28;20039;-71
2023/10/07 02:12:01;;;;;;;0.00;0.00;;;;;;;23.21;65.52;101982.34;5045729;28;20404;-72
2023/10/07 02:14:28;;;;;;;0.05;0.05;;;;;;;22.84;66.37;101979.22;5058325;28;20075;-72
2023/10/07 02:16:56;;;;;;;0.10;0.10;;;;;;;23.30;64.61;101977.94;5052425;28;20029;-72
2023/10/07 02:19:34;;;;;;;0.10;0.10;;;;;;;23.54;64.95;101989.91;5049682;28;20413;-70
2023/10/07 02:22:04;;;;;;;0.10;0.10;;;;;;;23.07;65.72;101977.78;5077170;28;20056;-70
2023/10/07 02:24:30;;;;;;;0.10;0.10;;;;;;;23.68;65.08;101984.63;5069235;28;20158;-72
2023/10/07 02:27:04;;;;;;;0.10;0.10;;;;;;;23.19;66.18;101990.03;5068840;28;20489;-71
2023/10/07 02:29:30;;;;;;;0.10;0.10;;;;;;;22.43;69.36;101978.47;5069259;28;20029;-72
2023/10/07 02:32:12;;;;;;;0.00;0.00;;;;;;;23.12;66.97;101980.47;5069812;28;20052;-72
2023/10/07 02:34:51;;;;;;;0.10;0.10;;;;;;;22.93;66.25;101974.00;5069239;28;20040;-72
2023/10/07 02:37:17;;;;;;;0.10;0.10;;;;;;;23.30;65.87;101972.44;5068762;28;20076;-72
2023/10/07 02:39:45;;;;;;;0.10;0.10;;;;;;;23.27;67.17;101975.75;5051421;28;20214;-71
2023/10/07 02:42:20;;;;;;;0.03;0.03;;;;;;;23.50;65.70;101977.03;5069270;28;20110;-70
2023/10/07 02:44:46;;;;;;;0.05;0.05;;;;;;;23.21;66.23;101990.59;5069661;28;20033;-71
2023/10/07 02:47:11;;;;;;;0.00;0.00;;;;;;;23.35;66.62;101979.88;5069815;28;20102;-72
2023/10/07 02:49:38;;;;;;;0.10;0.10;;;;;;;23.01;67.84;101981.63;5068851;28;20040;-71
2023/10/07 02:52:04;;;;;;;0.00;0.00;;;;;;;23.85;64.41;101974.06;5071542;28;20044;-71
2023/10/07 02:54:33;;;;;;;0.00;0.00;;;;;;;23.44;65.50;101975.44;5073017;28;20032;-71
2023/10/07 02:57:09;;;;;;;0.00;0.00;;;;;;;23.26;66.17;101970.56;5072807;28;20450;-72
2023/10/07 02:59:36;;;;;;;0.00;0.00;;;;;;;23.35;66.81;101969.69;5073613;28;20039;-71
2023/10/07 03:04:43;;;;;;;0.00;0.00;;;;;;;22.99;67.45;101981.94;5073217;28;20064;-72
2023/10/07 03:07:15;;;;;;;0.10;0.10;;;;;;;23.13;67.05;101982.13;5072737;28;20448;-72
2023/10/07 03:09:43;;;;;;;0.10;0.10;;;;;;;23.30;66.53;101975.19;5073320;28;20037;-71
2023/10/07 03:12:13;;;;;;;0.10;0.10;;;;;;;23.98;64.28;101973.38;5052795;28;20144;-71
2023/10/07 03:14:39;;;;;;;0.00;0.00;;;;;;;23.03;67.92;101961.06;5052744;28;20033;-71
2023/10/07 03:17:17;;;;;;;0.00;0.00;;;;;;;23.91;64.36;101972.91;5071187;28;20254;-70
2023/10/07 03:22:42;;;;;;;0.00;0.00;;;;;;;24.26;62.93;101969.06;5010556;28;20026;-70
2023/10/07 03:25:08;;;;;;;0.05;0.05;;;;;;;22.94;68.73;101972.91;5010411;28;20121;-69
2023/10/07 03:27:39;;;;;;;0.10;0.10;;;;;;;22.97;68.45;101975.06;5010064;28;20046;-71
2023/10/07 03:30:15;;;;;;;0.00;0.00;;;;;;;22.86;68.82;101970.75;5009758;28;20119;-72
2023/10/07 03:32:56;;;;;;;0.10;0.10;;;;;;;22.87;68.93;101975.94;5009709;28;20505;-71
2023/10/07 03:36:07;;;;;;;0.00;0.00;;;;;;;22.60;70.10;101968.03;5010587;28;20029;-71
2023/10/07 03:38:10;;;;;;;0.00;0.00;;;;;;;23.10;68.20;101969.81;5010157;28;20061;-72
2023/10/07 03:40:38;;;;;;;0.00;0.00;;;;;;;23.42;66.58;101967.50;5009929;28;20041;-70
2023/10/07 03:43:04;;;;;;;0.00;0.00;;;;;;;23.52;66.95;101967.44;5009129;28;20047;-70
2023/10/07 03:45:29;;;;;;;0.05;0.05;;;;;;;23.69;65.70;101975.25;5009328;28;20409;-71
2023/10/07 03:47:57;;;;;;;0.10;0.10;;;;;;;24.16;64.37;101983.72;5009481;28;20042;-71
2023/10/07 03:50:34;;;;;;;0.10;0.10;;;;;;;24.11;64.26;101982.94;5009289;28;20121;-70
2023/10/07 03:53:01;;;;;;;0.05;0.05;;;;;;;23.36;67.46;101976.00;5009417;28;20490;-71
2023/10/07 03:55:29;;;;;;;0.10;0.10;;;;;;;23.41;67.76;101965.81;5009241;28;20057;-71
2023/10/07 03:57:55;;;;;;;0.00;0.00;;;;;;;24.10;63.85;101975.78;4992613;28;20140;-71
2023/10/07 04:00:21;;;;;;;0.00;0.00;;;;;;;23.47;67.37;101972.94;5060622;28;20123;-71
2023/10/07 04:02:47;;;;;;;0.10;0.10;;;;;;;23.18;68.42;101980.19;5056773;28;20047;-70
2023/10/07 04:05:13;;;;;;;0.00;0.00;;;;;;;22.90;69.74;101967.13;5061050;28;20032;-70
2023/10/07 04:07:39;;;;;;;0.00;0.00;;;;;;;24.10;65.16;101957.38;5070895;28;20032;-71
2023/10/07 04:13:00;;;;;;;0.00;0.00;;;;;;;23.08;68.42;101963.78;5044767;28;20041;-71
2023/10/07 04:15:28;;;;;;;0.08;0.08;;;;;;;23.45;67.00;101952.34;5048013;28;20036;-72
2023/10/07 04:17:54;;;;;;;0.10;0.10;;;;;;;23.76;65.99;101969.47;5047134;28;20049;-73
2023/10/07 04:20:24;;;;;;;0.10;0.10;;;;;;;23.52;66.84;101964.69;5048119;28;20044;-70
2023/10/07 04:22:57;;;;;;;0.10;0.10;;;;;;;23.78;65.92;101959.00;5048761;28;20043;-72
2023/10/07 04:25:24;;;;;;;0.00;0.00;;;;;;;23.65;66.68;101952.22;5031632;28;20522;-72
2023/10/07 04:27:53;;;;;;;0.00;0.00;;;;;;;23.77;66.25;101955.44;5048786;28;20102;-70
2023/10/07 04:30:28;;;;;;;0.10;0.10;;;;;;;23.79;65.80;101953.22;5048446;28;20033;-70
2023/10/07 04:33:00;;;;;;;0.00;0.00;;;;;;;23.39;67.00;101945.25;5048351;28;20049;-72
2023/10/07 04:35:26;;;;;;;0.00;0.00;;;;;;;23.44;67.09;101950.72;5048599;28;20103;-71
2023/10/07 04:37:59;;;;;;;0.10;0.10;;;;;;;23.86;65.94;101955.66;5049013;28;20094;-70
2023/10/07 04:43:25;;;;;;;0.00;0.00;;;;;;;24.41;63.98;101969.72;5048236;28;20040;-70
2023/10/07 04:45:56;;;;;;;0.00;0.00;;;;;;;23.66;66.46;101966.78;5047853;28;20037;-71
2023/10/07 04:48:24;;;;;;;0.00;0.00;;;;;;;23.39;68.67;101962.53;5049664;28;20037;-71
2023/10/07 04:51:12;;;;;;;0.10;0.10;;;;;;;23.40;68.15;101953.22;5070448;28;20132;-73
2023/10/07 04:53:39;;;;;;;0.00;0.00;;;;;;;23.11;69.08;101957.75;5070603;28;20043;-72
2023/10/07 04:56:06;;;;;;;0.00;0.00;;;;;;;23.93;66.49;101961.63;5071518;28;20071;-70
2023/10/07 04:58:33;;;;;;;0.10;0.10;;;;;;;23.81;66.61;101945.53;5070677;28;20025;-70
2023/10/07 05:01:04;;;;;;;0.10;0.10;;;;;;;23.96;64.94;101948.13;5057424;28;20099;-71
2023/10/07 05:03:31;;;;;;;0.00;0.00;;;;;;;23.03;69.59;101947.38;5061583;28;20041;-70
2023/10/07 05:05:58;;;;;;;0.10;0.10;;;;;;;22.95;69.69;101955.34;5064756;28;20043;-72
2023/10/07 05:08:24;;;;;;;0.00;0.00;;;;;;;22.87;69.93;101959.50;5070712;28;20111;-71
2023/10/07 05:10:52;;;;;;;0.10;0.10;;;;;;;23.61;67.04;101953.91;5071510;28;20024;-71
2023/10/07 05:13:18;;;;;;;0.10;0.10;;;;;;;23.93;65.93;101956.13;5070517;28;20128;-71
2023/10/07 05:15:44;;;;;;;0.10;0.10;;;;;;;23.18;68.51;101960.16;5070606;28;20072;-70
2023/10/07 05:18:12;;;;;;;0.10;0.10;;;;;;;23.47;68.14;101952.91;5070237;28;20412;-71
2023/10/07 05:20:38;;;;;;;0.05;0.05;;;;;;;23.52;67.52;101945.47;5069808;28;20033;-70
2023/10/07 05:23:04;;;;;;;0.00;0.00;;;;;;;23.42;67.56;101937.31;5070532;28;20020;-71
2023/10/07 05:25:42;;;;;;;0.10;0.10;;;;;;;23.17;68.47;101934.69;5069874;28;20039;-71
2023/10/07 05:28:11;;;;;;;0.00;0.00;;;;;;;23.36;68.23;101938.44;5070167;28;20039;-71
2023/10/07 05:30:38;;;;;;;0.10;0.10;;;;;;;24.02;66.63;101940.69;5070042;28;20032;-71
2023/10/07 05:33:08;;;;;;;0.00;0.00;;;;;;;23.34;68.32;101940.66;5070362;28;20048;-71
2023/10/07 05:35:37;;;;;;;0.03;0.03;;;;;;;23.71;67.29;101931.88;5070230;28;20033;-71
2023/10/07 05:38:08;;;;;;;0.03;0.03;;;;;;;24.10;64.74;101938.16;5070561;28;20021;-71
2023/10/07 05:40:33;;;;;;;0.00;0.00;;;;;;;23.73;67.07;101935.16;5069994;28;20514;-71
2023/10/07 05:42:59;;;;;;;0.00;0.00;;;;;;;23.78;67.17;101946.13;5069821;28;20051;-71
2023/10/07 05:45:25;;;;;;;0.10;0.10;;;;;;;23.42;68.74;101948.28;5069966;28;20028;-71
2023/10/07 05:47:50;;;;;;;0.05;0.05;;;;;;;23.34;68.83;101953.53;5069455;28;20101;-71
2023/10/07 05:50:16;;;;;;;0.00;0.00;;;;;;;23.51;68.92;101953.97;5034696;28;20040;-71
2023/10/07 05:52:43;;;;;;;0.00;0.00;;;;;;;24.00;66.30;101956.66;5069096;28;20032;-71
2023/10/07 05:55:10;;;;;;;0.05;0.05;;;;;;;23.71;66.40;101961.25;5051536;28;20084;-71
2023/10/07 05:57:35;;;;;;;0.00;0.00;;;;;;;23.76;67.52;101963.97;5051502;28;20039;-71
2023/10/07 06:00:03;;;;;;;0.10;0.10;;;;;;;23.76;66.86;101966.72;5082262;28;20485;-72
2023/10/07 06:02:30;;;;;;;0.00;0.00;;;;;;;23.44;67.85;101968.03;5076849;28;20024;-69
2023/10/07 06:04:56;;;;;;;0.00;0.00;;;;;;;23.19;68.52;101970.84;5070363;28;20024;-73
2023/10/07 06:07:22;;;;;;;0.00;0.00;;;;;;;23.37;69.03;101972.97;5069033;28;20377;-71
2023/10/07 06:09:48;;;;;;;0.00;0.00;;;;;;;22.86;69.82;101973.47;5063024;28;20029;-72
2023/10/07 06:12:15;;;;;;;0.00;0.00;;;;;;;23.17;68.70;101973.09;5069055;28;20507;-71
2023/10/07 06:14:41;;;;;;;0.10;0.10;;;;;;;22.69;71.41;101971.06;5069662;28;20092;-72
2023/10/07 06:17:07;;;;;;;0.00;0.00;;;;;;;23.59;67.95;101963.53;5070132;28;20037;-71
2023/10/07 06:19:36;;;;;;;0.00;0.00;;;;;;;23.54;68.22;101959.72;5070755;28;20104;-70
2023/10/07 06:22:10;;;;;;;0.10;0.10;;;;;;;23.02;69.30;101964.91;5077857;28;20055;-72
2023/10/07 06:24:36;;;;;;;0.10;0.10;;;;;;;22.98;69.64;101952.03;5072577;28;20082;-70
2023/10/07 06:27:06;;;;;;;0.08;0.08;;;;;;;23.73;67.28;101951.63;5076646;28;20044;-71
2023/10/07 06:29:32;;;;;;;0.00;0.00;;;;;;;23.37;68.56;101956.53;5077201;28;20017;-71
2023/10/07 06:32:22;;;;;;;0.10;0.10;;;;;;;23.37;68.30;101947.50;5077468;28;20017;-73
2023/10/07 06:34:44;;;;;;;0.05;0.05;;;;;;;23.57;67.25;101943.81;5072488;28;20506;-71
2023/10/07 06:37:10;;;;;;;0.00;0.00;;;;;;;23.15;69.03;101955.25;5068694;28;20029;-70
2023/10/07 06:39:35;;;;;;;0.00;0.00;;;;;;;23.97;65.14;101959.94;5049956;28;20036;-71
2023/10/07 06:42:01;;;;;;;0.00;0.00;;;;;;;23.25;68.84;101968.94;5069280;28;20415;-72
2023/10/07 06:44:26;;;;;;;0.00;0.00;;;;;;;23.87;67.04;101969.09;5067385;28;20039;-72
2023/10/07 06:46:56;;;;;;;0.00;0.00;;;;;;;23.60;67.58;101960.50;5069445;28;20020;-72
2023/10/07 06:49:22;;;;;;;0.10;0.10;;;;;;;23.63;67.43;101972.81;5065841;28;20111;-72
2023/10/07 06:51:56;;;;;;;0.00;0.00;;;;;;;23.11;69.86;101976.13;5067048;28;20079;-74
2023/10/07 06:54:34;;;;;;;0.00;0.00;;;;;;;23.05;69.53;101977.25;5069097;28;20106;-73
2023/10/07 06:57:01;;;;;;;0.00;0.00;;;;;;;23.37;68.88;101983.97;5068521;28;20036;-71
2023/10/07 06:59:40;;;;;;;0.00;0.00;;;;;;;23.37;69.62;101988.66;5069298;28;20416;-71
2023/10/07 07:02:06;;;;;;;0.00;0.00;;;;;;;23.26;68.82;101990.56;5069363;28;20095;-71
2023/10/07 07:04:32;;;;;;;0.00;0.00;;;;;;;23.23;69.51;101980.16;5068962;28;20028;-71
2023/10/07 07:06:58;;;;;;;0.00;0.00;;;;;;;23.23;69.58;101990.31;5068997;28;20059;-73
2023/10/07 07:12:11;;;;;;;0.10;0.10;;;;;;;23.05;70.46;101977.25;5068754;28;20099;-71
2023/10/07 07:14:37;;;;;;;0.00;0.00;;;;;;;23.37;68.97;101983.97;5067962;28;20052;-70
2023/10/07 07:20:19;;;;;;;0.10;0.10;;;;;;;23.64;68.18;101966.25;5066456;28;20043;-72
2023/10/07 07:22:49;;;;;;;0.10;0.10;;;;;;;24.50;64.67;101960.84;5067034;28;20037;-70
2023/10/07 07:25:29;;;;;;;0.00;0.00;;;;;;;24.12;65.22;101966.16;5068080;28;20408;-71
2023/10/07 07:27:58;;;;;;;0.00;0.00;;;;;;;24.52;64.77;101964.13;5065778;28;20033;-71
2023/10/07 07:30:29;;;;;;;0.03;0.03;;;;;;;24.31;65.27;101960.78;5067535;28;20060;-71
2023/10/07 07:32:59;;;;;;;0.00;0.00;;;;;;;24.40;65.58;101970.84;5067290;28;20033;-72
2023/10/07 07:35:39;;;;;;;0.00;0.00;;;;;;;24.51;65.10;101979.78;5068314;28;20024;-71
2023/10/07 07:38:11;;;;;;;0.00;0.00;;;;;;;24.05;65.86;101973.94;5070229;28;20999;-72
2023/10/07 07:40:40;;;;;;;0.08;0.08;;;;;;;23.62;67.79;101979.44;5069369;28;20143;-71
2023/10/07 07:43:07;;;;;;;0.00;0.00;;;;;;;23.87;67.60;101982.00;5071416;28;20483;-72
2023/10/07 07:45:37;;;;;;;0.00;0.00;;;;;;;23.48;67.89;101982.00;5050170;28;20032;-72
2023/10/07 07:48:06;;;;;;;0.10;0.10;;;;;;;23.40;68.38;101994.38;5071496;28;20063;-71
2023/10/07 07:50:35;;;;;;;0.07;0.07;;;;;;;24.17;65.52;101979.88;5071375;28;20052;-71
2023/10/07 07:53:06;;;;;;;0.00;0.00;;;;;;;24.08;65.44;101978.84;5077561;28;20022;-73
2023/10/07 07:55:37;;;;;;;0.00;0.00;;;;;;;23.91;66.45;101974.81;5080189;28;20114;-71
2023/10/07 07:58:04;;;;;;;0.00;0.00;;;;;;;24.08;65.80;101973.34;5079550;28;20032;-72
2023/10/07 08:00:31;;;;;;;0.00;0.00;;;;;;;24.04;66.52;101980.50;5081344;28;20025;-71
2023/10/07 08:02:58;;;;;;;0.00;0.00;;;;;;;23.94;66.96;101980.56;5079787;28;20496;-71
2023/10/07 08:05:28;;;;;;;0.00;0.00;;;;;;;24.32;65.01;101985.22;5074489;28;20023;-73
2023/10/07 08:07:55;;;;;;;0.00;0.00;;;;;;;24.23;65.07;101994.38;5082287;28;20365;-74
2023/10/07 08:10:22;;;;;;;0.00;0.00;;;;;;;24.17;65.78;101984.53;5083339;28;20028;-72
2023/10/07 08:12:50;;;;;;;0.00;0.00;;;;;;;24.65;63.50;102005.50;5079777;28;20036;-70
2023/10/07 08:15:23;;;;;;;0.00;0.00;;;;;;;24.32;64.91;101993.47;5079514;28;20036;-69
2023/10/07 08:17:52;;;;;;;0.00;0.00;;;;;;;24.59;63.17;101992.91;5078317;28;20074;-72
2023/10/07 08:20:33;;;;;;;0.00;0.00;;;;;;;24.69;62.96;101983.72;5080355;28;20028;-73
2023/10/07 08:23:08;;;;;;;0.00;0.00;;;;;;;24.15;64.44;101992.25;5065688;28;20040;-71
2023/10/07 08:28:18;;;;;;;0.00;0.00;;;;;;;24.52;63.39;102002.63;5078547;28;20504;-71
2023/10/07 08:30:46;;;;;;;0.00;0.00;;;;;;;24.55;63.36;101994.59;5068557;28;20040;-73
2023/10/07 08:33:15;;;;;;;0.00;0.00;;;;;;;23.90;65.27;101989.69;5049331;28;20465;-72
2023/10/07 08:35:43;;;;;;;0.08;0.08;;;;;;;24.83;61.97;101993.78;5077553;28;20036;-72
2023/10/07 08:41:16;;;;;;;0.00;0.00;;;;;;;25.79;59.57;102014.56;5068691;28;20075;-72
2023/10/07 08:43:44;;;;;;;0.00;0.00;;;;;;;24.54;62.82;102016.88;5070422;28;20037;-68
2023/10/07 08:46:12;;;;;;;0.00;0.00;;;;;;;24.80;62.41;102013.63;5070947;28;20032;-72
2023/10/07 08:48:42;;;;;;;0.00;0.00;;;;;;;24.60;62.77;102012.97;5081405;28;20530;-71
2023/10/07 08:51:14;;;;;;;0.00;0.00;;;;;;;24.56;63.09;102007.25;5078328;28;20631;-72
2023/10/07 08:53:41;;;;;;;0.00;0.00;;;;;;;25.16;61.73;102009.34;5069854;28;20036;-72
2023/10/07 08:56:12;;;;;;;0.00;0.00;;;;;;;24.45;62.47;102008.47;5070609;28;20008;-69
2023/10/07 08:58:41;;;;;;;0.00;0.00;;;;;;;24.89;61.70;102011.88;5068023;28;20311;-73
2023/10/07 09:01:12;;;;;;;0.00;0.00;;;;;;;25.25;60.51;102002.09;5070670;28;20063;-72
2023/10/07 09:03:39;;;;;;;0.00;0.00;;;;;;;24.73;62.09;102004.06;5070408;28;20466;-71
2023/10/07 09:06:09;;;;;;;0.10;0.10;;;;;;;25.47;60.22;102008.97;5070353;28;20082;-70
2023/10/07 09:08:34;;;;;;;0.00;0.00;;;;;;;25.04;61.32;102008.94;5070169;28;20074;-69
2023/10/07 09:11:03;;;;;;;0.00;0.00;;;;;;;24.66;62.77;102009.06;5051848;28;20431;-71
2023/10/07 09:13:31;;;;;;;0.00;0.00;;;;;;;24.74;62.59;102016.72;5070286;28;20453;-72
2023/10/07 09:15:59;;;;;;;0.00;0.00;;;;;;;25.09;61.73;102025.41;5069899;28;20028;-72
2023/10/07 09:18:31;;;;;;;0.00;0.00;;;;;;;24.31;64.50;102023.97;5069984;28;20119;-71
2023/10/07 09:20:57;;;;;;;0.00;0.00;;;;;;;24.76;63.25;102014.50;5070010;28;20115;-72
2023/10/07 09:23:33;;;;;;;0.00;0.00;;;;;;;25.17;62.17;102024.75;5069949;28;20388;-71
2023/10/07 09:26:16;;;;;;;0.00;0.00;;;;;;;25.71;60.03;102018.81;5069877;28;20032;-71
2023/10/07 09:28:47;;;;;;;0.00;0.00;;;;;;;24.95;61.94;102016.19;5069361;28;20044;-73
2023/10/07 09:31:15;;;;;;;;;;;;;;;26.51;57.18;102016.72;5070344;28;20073;-71
2023/10/07 09:33:41;;;;;;;0.00;0.00;;;;;;;25.06;60.35;102020.47;5051321;28;20635;-72
2023/10/07 09:36:29;;;;;;;0.00;0.00;;;;;;;25.55;60.77;102013.81;5068945;28;20047;-72
2023/10/07 09:42:03;;;;;;;0.00;0.00;;;;;;;26.42;57.46;102006.66;5005322;28;20038;-72
2023/10/07 09:44:30;;;;;;;0.00;0.00;;;;;;;26.03;59.26;102002.34;5002058;28;20026;-71
2023/10/07 09:46:56;;;;;;;0.00;0.00;;;;;;;25.42;59.39;101998.84;5006356;28;20037;-68
2023/10/07 09:49:25;;;;;;;0.00;0.00;;;;;;;25.46;59.69;102010.91;5006203;28;20343;-72
2023/10/07 09:52:16;;;;;;;0.00;0.00;;;;;;;26.13;57.39;102012.41;5009196;28;20498;-71
2023/10/07 09:55:19;;;;;;;0.00;0.00;;;;;;;25.67;59.34;102011.44;5006175;28;20041;-70
2023/10/07 09:58:47;;;;;;;0.00;0.00;;;;;;;26.21;57.10;102016.41;5016251;28;20480;-72
2023/10/07 10:01:37;;;;;;;0.00;0.00;;;;;;;25.34;59.26;102007.72;4908467;29;20039;-71
2023/10/07 10:04:11;;;;;;;0.00;0.00;;;;;;;25.43;59.37;102007.94;4910219;29;20045;-72
2023/10/07 10:06:39;;;;;;;0.00;0.00;;;;;;;24.99;59.52;102020.00;4910083;29;20036;-72
2023/10/07 10:09:14;;;;;;;0.00;0.00;;;;;;;25.61;57.48;102031.91;4910414;29;20417;-73
2023/10/07 10:16:54;;;;;;;0.00;0.00;;;;;;;25.93;55.54;102030.03;4910294;29;20056;-73
2023/10/07 10:19:28;;;;;;;0.00;0.00;;;;;;;26.61;54.68;102013.75;4895810;29;20036;-74
2023/10/07 10:21:55;;;;;;;0.00;0.00;;;;;;;26.57;54.57;102023.78;4891466;29;20136;-73
2023/10/07 10:24:28;;;;;;;0.00;0.00;;;;;;;25.54;56.90;102024.00;4892157;29;20462;-73
2023/10/07 10:27:04;;;;;;;0.00;0.00;;;;;;;25.83;56.95;102024.69;4887523;29;20081;-74
2023/10/07 10:29:33;;;;;;;0.00;0.00;;;;;;;26.66;53.65;102021.94;4884155;29;20035;-71
2023/10/07 10:32:03;;;;;;;0.00;0.00;;;;;;;25.72;57.52;102055.44;4913347;29;20067;-73
2023/10/07 10:34:29;;;;;;;0.00;0.00;;;;;;;25.96;56.20;102050.66;4938740;28;20043;-74
2023/10/07 10:36:56;;;;;;;0.00;0.00;;;;;;;26.14;55.33;102047.13;4955635;28;20051;-73
2023/10/07 10:39:25;;;;;;;0.00;0.00;;;;;;;26.78;54.34;102046.28;5038762;28;20043;-74
2023/10/07 10:41:54;;;;;;;0.00;0.00;;;;;;;26.21;54.56;102044.78;5039067;28;20385;-71
2023/10/07 10:44:21;;;;;;;0.00;0.00;;;;;;;27.29;52.34;102059.91;5035236;28;20025;-73
2023/10/07 10:46:48;;;;;;;0.00;0.00;;;;;;;27.00;52.45;102035.38;5038091;28;20040;-74
2023/10/07 10:49:18;;;;;;;0.00;0.00;;;;;;;26.68;52.76;102044.50;5059559;28;20034;-71
2023/10/07 10:51:50;;;;;;;0.00;0.00;;;;;;;26.21;54.65;102041.22;5063087;28;20036;-74
2023/10/07 10:54:20;;;;;;;0.00;0.00;;;;;;;26.96;53.27;102042.63;5071566;28;20507;-63
2023/10/07 10:56:47;;;;;;;0.00;0.00;;;;;;;27.43;52.65;102041.41;5059402;28;20032;-64
2023/10/07 10:59:14;;;;;;;0.00;0.00;;;;;;;28.43;49.28;102035.47;5068164;28;20025;-63
2023/10/07 11:01:43;;;;;;;0.00;0.00;;;;;;;27.46;51.37;102032.53;5068295;28;20032;-63
2023/10/07 11:04:15;;;;;;;0.00;0.00;;;;;;;27.26;51.14;102053.06;5050318;28;20471;-64
2023/10/07 11:06:41;;;;;;;0.00;0.00;;;;;;;27.66;50.60;102045.88;5050082;28;20434;-63
2023/10/07 11:09:08;;;;;;;0.00;0.00;;;;;;;28.18;49.61;102038.88;5068122;28;20029;-63
2023/10/07 11:11:35;;;;;;;0.00;0.00;;;;;;;27.52;48.88;102045.06;5069107;28;20036;-64
2023/10/07 11:14:09;;;;;;;0.00;0.00;;;;;;;28.53;47.66;102049.03;5071708;28;20044;-63
2023/10/07 11:16:47;;;;;;;0.00;0.00;;;;;;;27.21;49.71;102050.41;5086606;28;20108;-63
2023/10/07 11:19:15;;;;;;;0.00;0.00;;;;;;;27.21;48.80;102058.69;5071917;28;20028;-64
2023/10/07 11:21:48;;;;;;;0.00;0.00;;;;;;;27.30;48.60;102061.56;5071942;28;20436;-64
2023/10/07 11:24:30;;;;;;;0.00;0.00;;;;;;;26.92;49.89;102044.38;5071582;28;20036;-62
2023/10/07 11:26:59;;;;;;;0.00;0.00;;;;;;;27.35;48.99;102042.97;5060271;28;20044;-62
2023/10/07 11:29:30;;;;;;;0.00;0.00;;;;;;;27.16;49.54;102050.53;5079825;28;20020;-62
2023/10/07 11:32:06;;;;;;;0.00;0.00;;;;;;;27.13;49.57;102051.13;5081147;28;20032;-62
2023/10/07 11:34:45;;;;;;;0.00;0.00;;;;;;;27.19;50.53;102047.13;5071886;28;20025;-64
2023/10/07 11:37:19;;;;;;;0.00;0.00;;;;;;;26.76;51.36;102030.06;5077507;28;20067;-62
2023/10/07 11:39:45;;;;;;;0.00;0.00;;;;;;;27.50;49.08;102055.63;5071672;28;20113;-63
2023/10/07 11:42:18;;;;;;;0.00;0.00;;;;;;;27.23;49.35;102050.09;5053278;28;20480;-62
2023/10/07 11:44:53;;;;;;;0.00;0.00;;;;;;;27.48;48.34;102046.81;5071356;28;20028;-63
2023/10/07 11:47:19;;;;;;;0.00;0.00;;;;;;;26.62;50.35;102042.97;5072190;28;20107;-63
2023/10/07 11:49:48;;;;;;;0.00;0.00;;;;;;;26.84;49.84;102054.19;5071234;28;20045;-64
2023/10/07 11:52:19;;;;;;;0.00;0.00;;;;;;;26.37;51.79;102057.19;5070580;28;20044;-63
2023/10/07 11:54:44;;;;;;;;;;;;;;;27.05;49.66;102057.34;5053030;28;20041;-62
2023/10/07 11:57:10;;;;;;;0.00;0.00;;;;;;;27.45;48.35;102051.03;5070623;28;20378;-63
2023/10/07 11:59:41;;;;;;;0.00;0.00;;;;;;;26.70;49.82;102030.41;5071199;28;20023;-63
2023/10/07 12:02:10;;;;;;;0.00;0.00;;;;;;;26.43;50.18;102039.47;5071354;28;20167;-66
2023/10/07 12:04:47;;;;;;;0.00;0.00;;;;;;;27.06;49.28;102039.69;5067111;28;20032;-63
2023/10/07 12:07:14;;;;;;;0.00;0.00;;;;;;;26.62;49.54;102033.88;5070571;28;20057;-63
2023/10/07 12:09:48;;;;;;;0.00;0.00;;;;;;;27.37;48.26;102026.09;5070361;28;20269;-61
2023/10/07 12:12:14;;;;;;;0.00;0.00;;;;;;;26.72;49.12;102022.69;5071800;28;20052;-62
2023/10/07 12:14:40;;;;;;;0.00;0.00;;;;;;;27.08;48.68;102017.28;5068416;28;20021;-63
2023/10/07 12:17:07;;;;;;;0.00;0.00;;;;;;;27.56;47.67;102018.47;5070219;28;20040;-64
2023/10/07 12:19:34;;;;;;;0.00;0.00;;;;;;;27.18;49.05;102020.69;5070700;28;20029;-62
2023/10/07 12:22:00;;;;;;;0.00;0.00;;;;;;;27.91;47.26;102019.63;5067850;28;20029;-62